Time;durP1;ratioP1;P1;durP2;ratioP2;P2;SDS_P1;SDS_P2;PMS_P1;PMS_P2;Temp;Humidity;BMP_temperature;BMP_pressure;BME280_temperature;BME280_humidity;BME280_pressure;Samples;Min_cycle;Max_cycle;Signal;HPM_P1;HPM_P2
2023/04/28 00:04:54;;;;;;;4.90;4.60;;;13.00;95.30;;;;;;10302657;28;20581;-81
2023/04/28 00:10:17;;;;;;;9.40;4.73;;;13.00;95.60;;;;;;10361628;28;20754;-81
2023/04/28 00:15:37;;;;;;;5.57;5.07;;;13.10;95.90;;;;;;10379696;28;20615;-81
2023/04/28 00:20:58;;;;;;;5.50;5.00;;;13.10;96.10;;;;;;10387027;28;20262;-80
2023/04/28 00:26:20;;;;;;;6.00;5.50;;;13.20;96.40;;;;;;10387654;28;20215;-81
2023/04/28 00:31:41;;;;;;;6.40;5.80;;;13.30;96.10;;;;;;10387500;28;20215;-80
2023/04/28 00:37:01;;;;;;;6.53;6.00;;;13.30;96.70;;;;;;10387137;28;20255;-81
2023/04/28 00:42:24;;;;;;;6.60;5.90;;;13.40;96.00;;;;;;10369158;28;20227;-81
2023/04/28 00:47:45;;;;;;;6.10;5.70;;;13.40;95.00;;;;;;10386198;28;20679;-80
2023/04/28 00:53:06;;;;;;;8.50;6.17;;;13.40;95.20;;;;;;10385722;28;20238;-80
2023/04/28 00:58:30;;;;;;;8.17;5.40;;;13.40;95.50;;;;;;10366996;28;20223;-81
2023/04/28 01:03:51;;;;;;;6.90;6.30;;;13.40;95.60;;;;;;10384249;28;20685;-80
2023/04/28 01:09:12;;;;;;;7.70;6.20;;;13.40;95.80;;;;;;10385078;28;20673;-80
2023/04/28 01:14:34;;;;;;;5.70;5.27;;;13.30;96.00;;;;;;10385888;28;20191;-81
2023/04/28 01:19:56;;;;;;;5.53;5.03;;;13.40;95.70;;;;;;10370611;28;20227;-81
2023/04/28 01:25:18;;;;;;;6.30;5.53;;;13.40;95.60;;;;;;10389407;28;20210;-81
2023/04/28 01:30:40;;;;;;;5.90;5.20;;;13.40;96.00;;;;;;10395896;28;20218;-81
2023/04/28 01:36:01;;;;;;;6.60;6.10;;;13.30;96.10;;;;;;10385654;28;20195;-81
2023/04/28 01:41:22;;;;;;;6.13;5.60;;;13.30;96.50;;;;;;10304108;28;20208;-81
2023/04/28 01:46:48;;;;;;;7.80;5.73;;;13.30;96.50;;;;;;10387059;28;20298;-81
2023/04/28 01:52:09;;;;;;;6.07;5.57;;;13.40;96.90;;;;;;10385391;28;20675;-81
2023/04/28 01:57:34;;;;;;;6.43;5.83;;;13.40;96.90;;;;;;10383601;28;20585;-81
2023/04/28 02:02:54;;;;;;;6.20;5.70;;;13.40;96.70;;;;;;10384047;28;20568;-80
2023/04/28 02:08:15;;;;;;;5.90;5.37;;;13.40;96.80;;;;;;10383365;28;20195;-80
2023/04/28 02:13:37;;;;;;;6.67;6.17;;;13.40;97.10;;;;;;10384349;28;20215;-80
2023/04/28 02:18:58;;;;;;;6.20;5.80;;;13.40;97.00;;;;;;10368239;28;20563;-81
2023/04/28 02:24:19;;;;;;;6.90;6.40;;;13.40;96.90;;;;;;10369220;28;20223;-80
2023/04/28 02:29:41;;;;;;;7.33;6.13;;;13.40;97.30;;;;;;10392806;28;20279;-81
2023/04/28 02:35:01;;;;;;;6.87;6.30;;;13.40;97.10;;;;;;10384216;28;20195;-80
2023/04/28 02:40:22;;;;;;;6.50;5.97;;;13.50;96.80;;;;;;10383047;28;20243;-80
2023/04/28 02:45:45;;;;;;;6.30;5.80;;;13.50;96.30;;;;;;10383217;28;20217;-80
2023/04/28 02:51:07;;;;;;;6.07;5.67;;;13.50;97.10;;;;;;10381380;28;20546;-80
2023/04/28 02:56:28;;;;;;;7.00;6.30;;;13.50;97.20;;;;;;10379937;28;20191;-80
2023/04/28 03:01:51;;;;;;;7.90;6.20;;;13.50;97.40;;;;;;10380430;28;20211;-80
2023/04/28 03:07:12;;;;;;;7.40;6.50;;;13.60;97.90;;;;;;10362741;28;20233;-80
2023/04/28 03:12:33;;;;;;;7.90;7.10;;;13.60;98.80;;;;;;10381198;28;20239;-81
2023/04/28 03:17:56;;;;;;;6.57;5.97;;;13.60;98.90;;;;;;10351896;28;20286;-81
2023/04/28 03:23:17;;;;;;;6.47;5.93;;;13.60;99.30;;;;;;10431918;22;20226;-79
2023/04/28 03:28:38;;;;;;;6.63;6.13;;;13.60;99.90;;;;;;10452687;28;20283;-80
2023/04/28 03:34:02;;;;;;;7.10;6.60;;;13.60;99.90;;;;;;10423070;28;20221;-80
2023/04/28 03:39:22;;;;;;;6.70;6.20;;;13.60;99.90;;;;;;10437313;28;20190;-80
2023/04/28 03:44:43;;;;;;;7.23;6.73;;;13.60;99.70;;;;;;10445883;28;20709;-82
2023/04/28 03:50:06;;;;;;;7.07;6.47;;;13.50;99.90;;;;;;10431427;28;20200;-79
2023/04/28 03:55:27;;;;;;;6.97;6.30;;;13.50;99.90;;;;;;10452433;28;20194;-80
2023/04/28 04:00:47;;;;;;;6.60;6.10;;;13.40;99.90;;;;;;10409353;28;20222;-80
2023/04/28 04:06:10;;;;;;;7.40;6.80;;;13.40;99.90;;;;;;10444734;28;20597;-80
2023/04/28 04:11:31;;;;;;;6.87;6.37;;;13.30;99.90;;;;;;10449387;28;20213;-80
2023/04/28 04:16:54;;;;;;;6.53;5.93;;;13.30;99.90;;;;;;10459420;28;20186;-81
2023/04/28 04:22:16;;;;;;;6.17;5.67;;;13.30;99.90;;;;;;10437099;28;20248;-81
2023/04/28 04:27:36;;;;;;;6.10;5.60;;;13.40;99.90;;;;;;10424855;28;20300;-81
2023/04/28 04:32:57;;;;;;;6.70;6.20;;;13.40;99.90;;;;;;10455671;28;20279;-81
2023/04/28 04:38:19;;;;;;;7.70;6.10;;;13.40;99.90;;;;;;10442742;28;20205;-83
2023/04/28 04:43:40;;;;;;;7.07;6.37;;;13.50;99.90;;;;;;10453514;28;20206;-78
2023/04/28 04:49:02;;;;;;;45.17;26.50;;;13.50;99.90;;;;;;10424369;28;20194;-78
2023/04/28 04:54:24;;;;;;;17.70;12.97;;;13.50;99.90;;;;;;10460800;28;20216;-78
2023/04/28 04:59:46;;;;;;;92.40;45.50;;;13.60;99.90;;;;;;10381751;28;20749;-77
2023/04/28 05:05:07;;;;;;;37.80;27.53;;;13.60;99.90;;;;;;10459257;28;20218;-78
2023/04/28 05:10:29;;;;;;;12.67;11.47;;;13.60;99.90;;;;;;10425142;28;20214;-76
2023/04/28 05:15:51;;;;;;;7.27;6.60;;;13.60;99.90;;;;;;10395952;28;20186;-79
2023/04/28 05:21:11;;;;;;;8.00;7.40;;;13.50;99.90;;;;;;10455079;28;20363;-79
2023/04/28 05:26:34;;;;;;;7.53;6.90;;;13.40;99.90;;;;;;10448654;28;20214;-78
2023/04/28 05:31:54;;;;;;;8.03;7.43;;;13.40;99.90;;;;;;10432162;28;20224;-77
2023/04/28 05:37:15;;;;;;;7.67;7.07;;;13.30;99.90;;;;;;10439579;28;20189;-78
2023/04/28 05:42:37;;;;;;;9.03;8.47;;;13.30;99.90;;;;;;10445904;28;20218;-78
2023/04/28 05:48:03;;;;;;;9.60;8.90;;;13.30;99.90;;;;;;10427291;28;20213;-78
2023/04/28 05:53:24;;;;;;;9.70;9.00;;;13.30;99.90;;;;;;10439202;28;20301;-78
2023/04/28 06:34:37;;;;;;;16.97;14.87;;;13.20;99.90;;;;;;10427731;28;20707;-79
2023/04/28 06:39:39;;;;;;;12.17;11.23;;;13.20;99.90;;;;;;10439792;28;20234;-79
2023/04/28 06:44:42;;;;;;;12.60;11.80;;;13.20;99.90;;;;;;10452287;28;20313;-80
2023/04/28 06:49:48;;;;;;;10.17;9.43;;;13.20;99.90;;;;;;10432579;28;20237;-79
2023/04/28 06:54:51;;;;;;;12.00;11.20;;;13.30;99.90;;;;;;10413971;28;20233;-79
2023/04/28 06:59:53;;;;;;;11.00;10.30;;;13.30;99.90;;;;;;10447132;28;20610;-79
2023/04/28 07:04:56;;;;;;;11.80;11.00;;;13.30;99.90;;;;;;10432237;28;20471;-78
2023/04/28 07:09:59;;;;;;;11.97;11.17;;;13.30;99.90;;;;;;10422835;28;20277;-79
2023/04/28 07:15:01;;;;;;;10.87;9.80;;;13.40;99.90;;;;;;10423107;28;20684;-78
2023/04/28 07:20:06;;;;;;;10.37;9.77;;;13.40;99.90;;;;;;10416958;28;20258;-78
2023/04/28 07:25:09;;;;;;;10.00;9.30;;;13.50;99.90;;;;;;10442533;28;20580;-78
2023/04/28 07:30:12;;;;;;;10.47;9.57;;;13.60;99.90;;;;;;10449803;28;20577;-78
2023/04/28 07:35:15;;;;;;;8.63;8.03;;;13.70;99.90;;;;;;10432635;28;20594;-78
2023/04/28 07:40:18;;;;;;;8.40;7.90;;;13.80;99.90;;;;;;10442808;28;20221;-78
2023/04/28 07:45:20;;;;;;;8.37;7.77;;;13.80;99.90;;;;;;10432335;28;20214;-78
2023/04/28 07:50:23;;;;;;;9.03;8.43;;;14.00;99.90;;;;;;10428056;28;20608;-78
2023/04/28 07:55:26;;;;;;;9.00;8.40;;;14.00;99.90;;;;;;10423650;28;20252;-78
2023/04/28 08:00:28;;;;;;;7.57;6.97;;;14.10;99.90;;;;;;10432977;28;20761;-79
2023/04/28 08:05:31;;;;;;;9.33;8.53;;;14.10;99.90;;;;;;10429892;28;20567;-79
2023/04/28 08:10:33;;;;;;;10.93;10.33;;;14.10;99.90;;;;;;10439915;28;20222;-80
2023/04/28 08:15:35;;;;;;;12.70;11.90;;;14.00;99.90;;;;;;10447539;28;20220;-80
2023/04/28 08:20:39;;;;;;;14.50;13.70;;;14.00;99.90;;;;;;10453399;28;20222;-80
2023/04/28 08:25:41;;;;;;;15.13;14.03;;;13.90;99.90;;;;;;10444884;28;20215;-78
2023/04/28 08:30:43;;;;;;;13.93;12.87;;;13.90;99.90;;;;;;10427844;28;20215;-79
2023/04/28 08:35:47;;;;;;;18.10;16.67;;;13.90;99.90;;;;;;10436416;28;20197;-78
2023/04/28 08:40:49;;;;;;;16.63;15.53;;;13.80;99.90;;;;;;10444270;28;20223;-80
2023/04/28 08:45:51;;;;;;;19.90;18.60;;;13.90;99.90;;;;;;10446108;28;20643;-79
2023/04/28 08:50:54;;;;;;;17.23;16.10;;;13.80;99.90;;;;;;10460676;28;20226;-80
2023/04/28 08:55:57;;;;;;;14.53;13.47;;;13.80;99.90;;;;;;10444659;28;20191;-79
2023/04/28 09:01:01;;;;;;;17.33;16.23;;;13.80;99.90;;;;;;10443905;28;20509;-79
2023/04/28 09:06:05;;;;;;;18.20;17.00;;;13.70;99.90;;;;;;10464160;28;20548;-79
2023/04/28 09:11:08;;;;;;;23.83;22.10;;;13.70;99.90;;;;;;10446936;28;20225;-78
2023/04/28 09:16:10;;;;;;;17.67;16.47;;;13.80;99.90;;;;;;10442902;28;20794;-77
2023/04/28 09:21:13;;;;;;;19.83;18.40;;;13.90;99.90;;;;;;10476397;22;20483;-81
2023/04/28 09:26:16;;;;;;;16.53;15.33;;;14.00;99.90;;;;;;10427561;28;20218;-82
2023/04/28 09:31:26;;;;;;;18.40;17.20;;;14.00;99.90;;;;;;10443555;28;20220;-81
2023/04/28 09:36:30;;;;;;;16.20;15.20;;;14.10;99.90;;;;;;10412879;28;20446;-81
2023/04/28 09:41:38;;;;;;;18.77;17.57;;;14.20;99.90;;;;;;10446505;28;20214;-81
2023/04/28 09:46:41;;;;;;;14.40;13.40;;;14.40;99.90;;;;;;10450379;28;20218;-80
2023/04/28 09:51:45;;;;;;;21.63;19.97;;;14.60;99.90;;;;;;10442628;28;20218;-80
2023/04/28 09:56:48;;;;;;;19.47;18.17;;;14.80;99.90;;;;;;10422573;28;20276;-80
2023/04/28 10:01:50;;;;;;;16.20;15.20;;;15.10;99.90;;;;;;10457624;28;20209;-80
2023/04/28 10:06:54;;;;;;;14.60;13.60;;;15.40;99.90;;;;;;10454336;28;20230;-80
2023/04/28 10:11:56;;;;;;;14.80;13.90;;;15.70;99.90;;;;;;10416061;28;20210;-80
2023/04/28 10:16:59;;;;;;;15.10;14.10;;;16.00;99.90;;;;;;10439279;28;20285;-80
2023/04/28 10:22:31;;;;;;;13.40;12.40;;;16.30;99.90;;;;;;10450513;28;20226;-80
2023/04/28 10:27:34;;;;;;;9.43;8.93;;;16.40;99.90;;;;;;10407667;28;20217;-80
2023/04/28 10:32:37;;;;;;;10.10;9.60;;;16.50;99.90;;;;;;10450909;28;20252;-80
2023/04/28 10:38:05;;;;;;;8.37;7.97;;;16.60;99.90;;;;;;10419844;28;20205;-80
2023/04/28 10:43:07;;;;;;;6.83;6.60;;;16.90;99.90;;;;;;10439918;28;20223;-80
2023/04/28 10:48:09;;;;;;;5.67;5.37;;;16.90;99.90;;;;;;10444160;28;20611;-80
2023/04/28 10:53:13;;;;;;;7.77;7.27;;;16.90;99.90;;;;;;10434297;28;20560;-81
2023/04/28 10:58:36;;;;;;;6.50;6.20;;;16.90;99.90;;;;;;10435378;28;20201;-80
2023/04/28 11:03:50;;;;;;;7.13;6.83;;;16.90;99.90;;;;;;10427494;28;20222;-82
2023/04/28 11:08:55;;;;;;;4.30;4.20;;;16.90;99.90;;;;;;10434255;28;20295;-80
2023/04/28 11:14:31;;;;;;;6.00;5.70;;;17.00;99.90;;;;;;10426900;28;20706;-80
2023/04/28 11:19:36;;;;;;;3.50;3.40;;;17.10;99.90;;;;;;10422811;28;20205;-80
2023/04/28 11:24:40;;;;;;;6.03;5.77;;;17.20;99.90;;;;;;10449717;28;20289;-81
2023/04/28 11:29:42;;;;;;;6.30;6.00;;;17.20;99.90;;;;;;10428272;28;20234;-81
2023/04/28 11:34:52;;;;;;;5.07;4.87;;;17.20;99.90;;;;;;10437876;28;20313;-81
2023/04/28 11:39:56;;;;;;;4.67;4.47;;;17.20;99.90;;;;;;10414279;28;20297;-81
2023/04/28 11:44:58;;;;;;;5.50;5.30;;;17.20;99.90;;;;;;10409193;28;20730;-81
2023/04/28 11:50:01;;;;;;;6.67;6.37;;;17.30;99.90;;;;;;10448343;28;20566;-81
2023/04/28 11:55:06;;;;;;;5.10;5.00;;;17.40;99.90;;;;;;10417947;28;20233;-81
2023/04/28 12:00:18;;;;;;;5.60;5.40;;;17.40;99.90;;;;;;10426425;28;20567;-81
2023/04/28 12:05:21;;;;;;;5.70;5.50;;;17.60;99.90;;;;;;10429029;28;20730;-81
2023/04/28 12:10:24;;;;;;;6.23;5.93;;;17.70;99.90;;;;;;10425597;28;20272;-81
2023/04/28 12:15:40;;;;;;;6.23;5.93;;;17.80;99.90;;;;;;10448943;28;20276;-81
2023/04/28 12:20:42;;;;;;;5.33;5.13;;;17.80;99.90;;;;;;10400122;28;20228;-81
2023/04/28 12:25:47;;;;;;;5.20;5.00;;;17.80;99.90;;;;;;10459163;28;20662;-81
2023/04/28 12:30:49;;;;;;;2.60;2.50;;;17.80;99.90;;;;;;10436349;28;20205;-83
2023/04/28 12:35:52;;;;;;;4.47;4.27;;;17.80;99.90;;;;;;10420352;28;20195;-82
2023/04/28 12:40:56;;;;;;;4.00;3.90;;;17.80;99.90;;;;;;10394234;28;20220;-83
2023/04/28 12:45:59;;;;;;;4.13;3.90;;;17.80;99.90;;;;;;10411092;28;20207;-83
2023/04/28 12:51:01;;;;;;;4.60;4.40;;;17.70;99.90;;;;;;10411801;28;20214;-82
2023/04/28 12:56:05;;;;;;;4.33;4.10;;;17.70;99.90;;;;;;10408731;28;20199;-83
2023/04/28 13:01:07;;;;;;;4.43;4.33;;;17.50;99.90;;;;;;10397213;28;20215;-83
2023/04/28 13:06:09;;;;;;;3.07;2.87;;;17.50;99.90;;;;;;10394875;28;20219;-83
2023/04/28 13:11:13;;;;;;;3.90;3.70;;;17.40;99.90;;;;;;10412315;28;20244;-82
2023/04/28 13:16:15;;;;;;;3.83;3.63;;;17.30;99.90;;;;;;10372539;28;20203;-82
2023/04/28 13:21:17;;;;;;;4.57;4.37;;;17.30;99.90;;;;;;10377712;28;20227;-83
2023/04/28 13:26:23;;;;;;;4.97;4.73;;;17.10;99.90;;;;;;10388735;28;20564;-83
2023/04/28 13:31:25;;;;;;;3.20;3.10;;;17.10;99.90;;;;;;10410145;28;20241;-83
2023/04/28 13:36:28;;;;;;;4.10;3.30;;;17.20;99.90;;;;;;10412858;28;20240;-82
2023/04/28 13:41:31;;;;;;;3.30;3.00;;;17.40;99.90;;;;;;10437796;28;20240;-83
2023/04/28 13:46:33;;;;;;;2.27;2.17;;;17.40;99.90;;;;;;10418881;28;20604;-82
2023/04/28 13:51:36;;;;;;;3.27;3.00;;;17.40;99.90;;;;;;10420210;28;20214;-83
2023/04/28 13:56:40;;;;;;;2.40;2.30;;;17.20;99.90;;;;;;10413520;28;20203;-82
2023/04/28 14:01:42;;;;;;;3.13;2.93;;;17.10;99.90;;;;;;10420807;28;20230;-83
2023/04/28 14:06:44;;;;;;;3.53;2.30;;;16.90;99.90;;;;;;10451123;28;20214;-82
2023/04/28 14:11:47;;;;;;;2.90;2.70;;;16.80;99.90;;;;;;10441372;28;20225;-83
2023/04/28 14:16:50;;;;;;;5.13;4.67;;;16.70;99.90;;;;;;10418830;28;20197;-83
2023/04/28 14:21:52;;;;;;;4.47;4.27;;;16.60;99.90;;;;;;10415930;28;20234;-83
2023/04/28 14:26:56;;;;;;;2.87;2.67;;;16.60;99.90;;;;;;10416193;28;20218;-83
2023/04/28 14:31:58;;;;;;;5.83;5.43;;;16.40;99.90;;;;;;10393768;28;20753;-83
2023/04/28 14:37:00;;;;;;;7.50;7.10;;;16.30;99.90;;;;;;10400314;28;20201;-81
2023/04/28 14:42:04;;;;;;;7.37;6.93;;;16.20;99.90;;;;;;10405905;28;20263;-82
2023/04/28 14:47:06;;;;;;;8.00;7.50;;;16.30;99.90;;;;;;10422772;28;20252;-83
2023/04/28 14:52:09;;;;;;;8.50;8.00;;;16.50;99.90;;;;;;10414663;28;20242;-83
2023/04/28 14:57:13;;;;;;;7.17;6.67;;;16.60;99.90;;;;;;10459933;28;20659;-82
2023/04/28 15:02:15;;;;;;;29.87;24.30;;;16.70;99.90;;;;;;10448433;28;20771;-82
2023/04/28 15:07:17;;;;;;;4.27;4.07;;;16.80;99.90;;;;;;10440046;28;20646;-82
2023/04/28 15:12:20;;;;;;;6.87;6.57;;;16.70;99.90;;;;;;10426986;28;20581;-82
2023/04/28 15:17:22;;;;;;;7.13;6.87;;;16.60;99.90;;;;;;10423686;28;20194;-82
2023/04/28 15:22:25;;;;;;;6.93;6.63;;;16.60;99.90;;;;;;10426343;22;20271;-79
2023/04/28 15:27:28;;;;;;;5.47;5.27;;;16.60;99.90;;;;;;10414271;28;20257;-80
2023/04/28 15:32:31;;;;;;;9.50;9.00;;;16.50;99.90;;;;;;10398065;28;20310;-80
2023/04/28 15:37:41;;;;;;;5.83;5.63;;;16.50;99.90;;;;;;10405990;28;20208;-80
2023/04/28 15:42:47;;;;;;;5.03;4.83;;;16.50;99.90;;;;;;10416971;28;20245;-80
2023/04/28 15:47:53;;;;;;;5.00;4.80;;;16.40;99.90;;;;;;10408550;28;20206;-80
2023/04/28 15:52:56;;;;;;;5.67;5.47;;;16.30;99.90;;;;;;10422741;28;20313;-78
2023/04/28 15:58:00;;;;;;;6.50;6.20;;;16.20;99.90;;;;;;10412690;28;20550;-79
2023/04/28 16:03:02;;;;;;;4.87;4.77;;;16.10;99.90;;;;;;10408262;28;20240;-80
2023/04/28 16:08:05;;;;;;;3.50;3.30;;;16.10;99.90;;;;;;10425558;28;20265;-79
2023/04/28 16:13:10;;;;;;;4.50;4.30;;;16.10;99.90;;;;;;10416803;28;20297;-80
2023/04/28 16:18:12;;;;;;;5.73;5.53;;;16.10;99.90;;;;;;10384951;28;20628;-79
2023/04/28 16:23:14;;;;;;;5.50;5.20;;;16.10;99.90;;;;;;10384971;28;20231;-80
2023/04/28 16:28:17;;;;;;;7.43;7.13;;;16.10;99.90;;;;;;10403119;28;20207;-77
2023/04/28 16:33:20;;;;;;;8.00;7.57;;;16.00;99.90;;;;;;10419242;28;20234;-80
2023/04/28 16:38:23;;;;;;;6.13;5.73;;;15.90;99.90;;;;;;10395513;28;20203;-79
2023/04/28 16:43:26;;;;;;;9.30;8.87;;;15.80;99.90;;;;;;10410938;28;20226;-78
2023/04/28 16:48:28;;;;;;;10.70;10.10;;;15.80;99.90;;;;;;10389124;28;20226;-80
2023/04/28 16:53:33;;;;;;;10.93;10.43;;;15.90;99.90;;;;;;10423295;28;20218;-79
2023/04/28 16:58:46;;;;;;;6.47;6.10;;;15.90;99.90;;;;;;10400322;28;20199;-77
2023/04/28 17:03:50;;;;;;;9.57;9.10;;;16.00;99.90;;;;;;10410295;28;20681;-78
2023/04/28 17:08:52;;;;;;;9.47;8.87;;;15.90;99.90;;;;;;10394203;28;20214;-80
2023/04/28 17:13:56;;;;;;;9.60;9.00;;;15.90;99.90;;;;;;10418227;28;20214;-77
2023/04/28 17:18:59;;;;;;;8.73;8.23;;;15.90;99.90;;;;;;10387139;28;20293;-78
2023/04/28 17:24:01;;;;;;;8.77;8.37;;;15.90;99.90;;;;;;10382670;28;20717;-78
2023/04/28 17:29:05;;;;;;;6.23;6.03;;;15.90;99.90;;;;;;10400261;28;20211;-80
2023/04/28 17:34:07;;;;;;;8.47;7.97;;;15.80;99.90;;;;;;10402411;28;20215;-75
2023/04/28 17:39:09;;;;;;;9.77;9.27;;;15.80;99.90;;;;;;10419732;28;20198;-77
2023/04/28 17:44:13;;;;;;;9.80;9.30;;;15.80;99.90;;;;;;10423874;28;20236;-79
2023/04/28 17:49:15;;;;;;;10.90;10.37;;;15.90;99.90;;;;;;10386481;28;20213;-78
2023/04/28 17:54:17;;;;;;;10.13;9.60;;;15.90;99.90;;;;;;10427298;28;20250;-77
2023/04/28 17:59:21;;;;;;;12.33;11.70;;;15.80;99.90;;;;;;10420860;28;20561;-78
2023/04/28 18:04:23;;;;;;;10.60;10.10;;;15.80;99.90;;;;;;10391275;28;20222;-80
2023/04/28 18:09:25;;;;;;;8.40;7.80;;;15.80;99.90;;;;;;10421692;28;20237;-79
2023/04/28 18:14:30;;;;;;;9.93;9.43;;;15.80;99.90;;;;;;10391843;28;20237;-80
2023/04/28 18:19:32;;;;;;;10.93;10.33;;;15.80;99.90;;;;;;10383203;28;20194;-79
2023/04/28 18:24:35;;;;;;;12.63;11.87;;;15.70;99.90;;;;;;10401763;28;20687;-79
2023/04/28 18:29:38;;;;;;;14.97;13.73;;;15.70;99.90;;;;;;10433851;28;20218;-80
2023/04/28 18:34:42;;;;;;;13.53;12.53;;;15.70;99.90;;;;;;10415387;28;20232;-78
2023/04/28 18:39:44;;;;;;;14.23;13.13;;;15.60;99.90;;;;;;10411453;28;20195;-78
2023/04/28 18:44:52;;;;;;;13.80;13.10;;;15.60;99.90;;;;;;10420403;28;20223;-78
2023/04/28 18:49:54;;;;;;;11.67;11.07;;;15.50;99.90;;;;;;10426416;28;20249;-78
2023/04/28 18:54:57;;;;;;;9.70;9.20;;;15.50;99.90;;;;;;10411450;28;20218;-78
2023/04/28 19:00:00;;;;;;;11.40;10.80;;;15.40;99.90;;;;;;10428778;28;20603;-77
2023/04/28 19:05:04;;;;;;;12.70;11.27;;;15.30;99.90;;;;;;10405681;28;20222;-77
2023/04/28 19:10:07;;;;;;;11.50;10.73;;;15.30;99.90;;;;;;10406073;28;20270;-78
2023/04/28 19:15:11;;;;;;;13.40;12.60;;;15.20;99.90;;;;;;10425925;28;20218;-78
2023/04/28 19:25:39;;;;;;;11.20;10.60;;;15.10;99.90;;;;;;10379498;28;20205;-78
2023/04/28 19:30:43;;;;;;;10.63;9.93;;;15.10;99.90;;;;;;10421263;28;20297;-77
2023/04/28 19:35:47;;;;;;;11.07;10.40;;;15.00;99.90;;;;;;10385950;28;20607;-76
2023/04/28 19:41:00;;;;;;;12.63;11.60;;;14.90;99.90;;;;;;10422618;28;20655;-78
2023/04/28 19:46:07;;;;;;;13.70;12.80;;;14.90;99.90;;;;;;10387290;28;20262;-81
2023/04/28 19:51:11;;;;;;;14.43;13.43;;;14.90;99.90;;;;;;10391344;28;20226;-77
2023/04/28 19:56:13;;;;;;;19.87;18.17;;;14.80;99.90;;;;;;10378913;28;20199;-80
2023/04/28 20:01:18;;;;;;;12.97;12.17;;;14.80;99.90;;;;;;10402905;28;20210;-80
2023/04/28 20:06:21;;;;;;;11.40;10.70;;;14.80;99.90;;;;;;10392383;28;20253;-78
2023/04/28 20:11:23;;;;;;;11.40;10.67;;;14.80;99.90;;;;;;10400288;28;20728;-80
2023/04/28 20:16:27;;;;;;;10.73;10.23;;;14.70;99.90;;;;;;10396937;28;20222;-78
2023/04/28 20:21:30;;;;;;;11.60;10.90;;;14.70;99.90;;;;;;10403986;28;20249;-78
2023/04/28 20:26:32;;;;;;;10.70;10.10;;;14.70;99.90;;;;;;10418808;28;20206;-78
2023/04/28 20:31:36;;;;;;;11.13;10.53;;;14.60;99.90;;;;;;10376311;28;20249;-79
2023/04/28 20:36:38;;;;;;;11.30;10.50;;;14.60;99.90;;;;;;10428971;28;20727;-79
2023/04/28 20:41:40;;;;;;;10.60;10.00;;;14.60;99.90;;;;;;10428661;28;20631;-79
2023/04/28 20:46:44;;;;;;;9.80;9.30;;;14.60;99.90;;;;;;10398333;28;20211;-79
2023/04/28 20:51:47;;;;;;;10.93;10.33;;;14.50;99.90;;;;;;10382610;28;20706;-78
2023/04/28 20:56:49;;;;;;;10.53;10.03;;;14.50;99.90;;;;;;10427596;28;20290;-78
2023/04/28 21:01:52;;;;;;;11.00;10.40;;;14.50;99.90;;;;;;10395686;28;20219;-79
2023/04/28 21:06:55;;;;;;;13.53;12.53;;;14.60;99.90;;;;;;10428181;28;20699;-79
2023/04/28 21:11:57;;;;;;;9.60;8.90;;;14.50;99.90;;;;;;10428648;28;20658;-79
2023/04/28 21:17:02;;;;;;;9.20;8.53;;;14.60;99.90;;;;;;10410583;28;20659;-79
2023/04/28 21:22:04;;;;;;;11.63;10.57;;;14.60;99.90;;;;;;10430581;23;20249;-84
2023/04/28 21:27:06;;;;;;;10.17;9.47;;;14.60;99.90;;;;;;10383277;28;20207;-84
2023/04/28 21:32:10;;;;;;;40.30;21.43;;;14.60;99.90;;;;;;10382688;28;20206;-84
2023/04/28 21:37:12;;;;;;;25.90;14.90;;;14.60;99.90;;;;;;10382467;28;20559;-83
2023/04/28 21:42:14;;;;;;;10.63;9.83;;;14.60;99.90;;;;;;10399169;28;20214;-84
2023/04/28 21:47:18;;;;;;;23.10;13.93;;;14.70;99.90;;;;;;10398571;28;20298;-84
2023/04/28 21:52:20;;;;;;;7.60;7.00;;;14.60;99.90;;;;;;10381714;28;20615;-84
2023/04/28 21:57:22;;;;;;;9.67;8.90;;;14.60;99.90;;;;;;10397822;28;20187;-84
2023/04/28 22:02:25;;;;;;;9.20;8.50;;;14.60;99.90;;;;;;10394339;28;20751;-84
2023/04/28 22:07:27;;;;;;;10.40;9.50;;;14.60;99.90;;;;;;10406863;28;20342;-85
2023/04/28 22:12:29;;;;;;;9.07;8.40;;;14.60;99.90;;;;;;10380856;28;20219;-84
2023/04/28 22:17:33;;;;;;;8.27;7.70;;;14.60;99.90;;;;;;10397235;28;20585;-84
2023/04/28 22:22:35;;;;;;;8.60;8.10;;;14.60;99.90;;;;;;10397468;28;20667;-84
2023/04/28 22:27:39;;;;;;;7.70;7.30;;;14.50;99.90;;;;;;10380227;28;20584;-84
2023/04/28 22:32:43;;;;;;;8.50;7.90;;;14.50;99.90;;;;;;10380008;28;20261;-85
2023/04/28 22:37:45;;;;;;;12.27;10.73;;;14.50;99.90;;;;;;10396819;28;20230;-85
2023/04/28 22:42:47;;;;;;;9.57;8.57;;;14.50;99.90;;;;;;10397325;28;20222;-85
2023/04/28 22:47:51;;;;;;;11.87;9.80;;;14.50;99.90;;;;;;10396552;28;20218;-85
2023/04/28 22:52:53;;;;;;;11.17;8.23;;;14.50;99.90;;;;;;10413777;28;20301;-85
2023/04/28 22:57:55;;;;;;;8.33;7.73;;;14.50;99.90;;;;;;10400668;28;20225;-84
2023/04/28 23:02:59;;;;;;;7.93;7.43;;;14.50;99.90;;;;;;10396620;28;20570;-84
2023/04/28 23:08:01;;;;;;;7.00;6.50;;;14.40;99.90;;;;;;10396528;28;20246;-83
2023/04/28 23:13:03;;;;;;;7.70;7.17;;;14.40;99.90;;;;;;10379937;28;20656;-84
2023/04/28 23:18:08;;;;;;;7.40;6.90;;;14.50;99.90;;;;;;10384155;28;20658;-82
2023/04/28 23:23:10;;;;;;;7.47;6.97;;;14.50;99.90;;;;;;10420948;28;20592;-81
2023/04/28 23:28:12;;;;;;;7.93;7.43;;;14.40;99.90;;;;;;10403808;28;20231;-82
2023/04/28 23:33:15;;;;;;;6.80;6.30;;;14.50;99.90;;;;;;10421100;28;20225;-82
2023/04/28 23:38:17;;;;;;;7.30;6.90;;;14.50;99.90;;;;;;10403203;28;20187;-82
2023/04/28 23:43:20;;;;;;;7.30;6.80;;;14.40;99.90;;;;;;10403756;28;20293;-82
2023/04/28 23:48:23;;;;;;;7.43;6.90;;;14.40;99.90;;;;;;10422465;28;20222;-82
2023/04/28 23:53:25;;;;;;;7.37;6.80;;;14.40;99.90;;;;;;10391279;28;20218;-82
2023/04/28 23:58:27;;;;;;;7.50;6.90;;;14.40;99.90;;;;;;10438314;28;20195;-84
